Time;durP1;ratioP1;P1;durP2;ratioP2;P2;SDS_P1;SDS_P2;PMS_P1;PMS_P2;Temp;Humidity;BMP_temperature;BMP_pressure;BME280_temperature;BME280_humidity;BME280_pressure;Samples;Min_cycle;Max_cycle;Signal;HPM_P1;HPM_P2
2023/07/27 00:00:01;;;;;;;;;;;17.00;99.90;;;;;;8387013;28;19928;-70
2023/07/27 00:04:02;;;;;;;;;;;17.00;99.90;;;;;;8385690;28;19979;-70
2023/07/27 00:08:04;;;;;;;;;;;17.00;99.90;;;;;;8376885;28;20398;-70
2023/07/27 00:12:06;;;;;;;;;;;17.00;99.90;;;;;;8389181;28;19924;-70
2023/07/27 00:16:08;;;;;;;;;;;17.00;99.90;;;;;;8374595;28;19925;-70
2023/07/27 00:20:09;;;;;;;;;;;17.00;99.90;;;;;;8385580;28;19924;-70
2023/07/27 00:24:11;;;;;;;;;;;17.00;99.90;;;;;;8365726;28;20387;-70
2023/07/27 00:28:13;;;;;;;;;;;17.00;99.90;;;;;;8377412;28;19928;-71
2023/07/27 00:32:14;;;;;;;;;;;17.00;99.90;;;;;;8408823;28;20333;-70
2023/07/27 00:36:16;;;;;;;;;;;17.00;99.90;;;;;;8371388;28;19970;-70
2023/07/27 00:40:18;;;;;;;;;;;17.00;99.90;;;;;;8364939;28;19924;-70
2023/07/27 00:44:20;;;;;;;;;;;16.90;99.90;;;;;;8362843;28;19931;-71
2023/07/27 00:48:21;;;;;;;;;;;16.90;99.90;;;;;;8402724;28;19986;-70
2023/07/27 00:52:23;;;;;;;;;;;16.80;99.90;;;;;;8389142;28;19925;-70
2023/07/27 00:56:25;;;;;;;;;;;16.70;99.90;;;;;;8392645;28;20299;-70
2023/07/27 01:00:27;;;;;;;;;;;16.60;99.90;;;;;;8383526;28;19936;-71
2023/07/27 01:04:29;;;;;;;;;;;16.60;99.90;;;;;;8371315;28;19932;-71
2023/07/27 01:08:31;;;;;;;;;;;16.60;99.90;;;;;;8373917;28;19925;-71
2023/07/27 01:12:41;;;;;;;;;;;16.50;99.90;;;;;;8379198;28;19931;-71
2023/07/27 01:16:57;;;;;;;;;;;16.50;99.90;;;;;;8386024;28;19925;-71
2023/07/27 01:21:03;;;;;;;;;;;16.50;99.90;;;;;;8392490;28;19924;-71
2023/07/27 01:25:28;;;;;;;;;;;16.40;99.90;;;;;;8364209;28;20388;-71
2023/07/27 01:29:33;;;;;;;;;;;16.40;99.90;;;;;;8372347;28;19924;-71
2023/07/27 01:33:37;;;;;;;;;;;16.40;99.90;;;;;;8387421;28;19928;-71
2023/07/27 01:37:43;;;;;;;;;;;16.30;99.90;;;;;;8377161;28;19928;-71
2023/07/27 01:41:46;;;;;;;;;;;16.30;99.90;;;;;;8381826;28;19966;-71
2023/07/27 01:45:48;;;;;;;;;;;16.30;99.90;;;;;;8382323;28;19925;-71
2023/07/27 01:49:49;;;;;;;;;;;16.20;99.90;;;;;;8391926;28;20380;-71
2023/07/27 01:53:53;;;;;;;;;;;16.30;99.90;;;;;;8408444;28;19935;-71
2023/07/27 01:57:56;;;;;;;;;;;16.30;99.90;;;;;;8374970;28;19932;-71
2023/07/27 02:01:59;;;;;;;;;;;16.30;99.90;;;;;;8387786;28;19928;-71
2023/07/27 02:06:01;;;;;;;;;;;16.30;99.90;;;;;;8373192;28;19924;-71
2023/07/27 02:10:03;;;;;;;;;;;16.40;99.90;;;;;;8395964;28;20347;-71
2023/07/27 02:14:08;;;;;;;;;;;16.40;99.90;;;;;;8371988;28;19924;-71
2023/07/27 02:18:21;;;;;;;;;;;16.40;99.90;;;;;;8376183;28;19928;-71
2023/07/27 02:22:23;;;;;;;;;;;16.40;99.90;;;;;;8369805;28;19947;-72
2023/07/27 02:26:25;;;;;;;;;;;16.40;99.90;;;;;;8373123;28;19928;-71
2023/07/27 02:30:27;;;;;;;;;;;16.40;99.90;;;;;;8389195;28;20372;-71
2023/07/27 02:34:28;;;;;;;;;;;16.40;99.90;;;;;;8391717;28;19974;-71
2023/07/27 02:38:30;;;;;;;;;;;16.40;99.90;;;;;;8381428;28;19924;-71
2023/07/27 02:42:32;;;;;;;;;;;16.40;99.90;;;;;;8359333;28;19929;-71
2023/07/27 02:46:34;;;;;;;;;;;16.40;99.90;;;;;;8372752;28;20375;-71
2023/07/27 02:50:36;;;;;;;;;;;16.40;99.90;;;;;;8378501;28;20337;-71
2023/07/27 02:54:37;;;;;;;;;;;16.30;99.90;;;;;;8376960;28;19925;-71
2023/07/27 02:58:39;;;;;;;;;;;16.30;99.90;;;;;;8384936;28;20334;-71
2023/07/27 03:02:41;;;;;;;;;;;16.30;99.90;;;;;;8386442;28;19929;-71
2023/07/27 03:06:43;;;;;;;;;;;16.20;99.90;;;;;;8393368;28;19935;-71
2023/07/27 03:10:44;;;;;;;;;;;16.10;99.90;;;;;;8372068;28;19924;-71
2023/07/27 03:14:46;;;;;;;;;;;16.10;99.90;;;;;;8387998;28;19954;-70
2023/07/27 03:18:48;;;;;;;;;;;16.10;99.90;;;;;;8383182;28;19924;-70
2023/07/27 03:22:49;;;;;;;;;;;16.10;99.90;;;;;;8376568;28;19948;-70
2023/07/27 03:26:54;;;;;;;;;;;16.00;99.90;;;;;;8373116;28;20346;-71
2023/07/27 03:30:56;;;;;;;;;;;16.00;99.90;;;;;;8361953;28;20300;-71
2023/07/27 03:34:57;;;;;;;;;;;16.00;99.90;;;;;;8371273;28;19928;-71
2023/07/27 03:38:59;;;;;;;;;;;16.00;99.90;;;;;;8367599;28;19925;-70
2023/07/27 03:43:00;;;;;;;;;;;16.00;99.90;;;;;;8393675;28;19924;-71
2023/07/27 03:47:02;;;;;;;;;;;16.00;99.90;;;;;;8382339;28;19974;-71
2023/07/27 03:51:04;;;;;;;;;;;15.90;99.90;;;;;;8367240;28;19925;-71
2023/07/27 03:55:06;;;;;;;;;;;15.90;99.90;;;;;;8405943;28;19924;-71
2023/07/27 03:59:07;;;;;;;;;;;15.90;99.90;;;;;;8365513;28;19931;-70
2023/07/27 04:03:09;;;;;;;;;;;15.90;99.90;;;;;;8376800;28;19925;-70
2023/07/27 04:07:11;;;;;;;;;;;15.90;99.90;;;;;;8370732;28;20371;-70
2023/07/27 04:11:13;;;;;;;;;;;15.80;99.90;;;;;;8386943;28;19955;-70
2023/07/27 04:15:14;;;;;;;;;;;15.80;99.90;;;;;;8381666;28;19925;-70
2023/07/27 04:19:16;;;;;;;;;;;15.80;99.90;;;;;;8391387;28;19925;-71
2023/07/27 04:23:18;;;;;;;;;;;15.80;99.90;;;;;;8380283;28;19924;-70
2023/07/27 04:27:19;;;;;;;;;;;15.80;99.90;;;;;;8400922;28;19933;-70
2023/07/27 04:31:21;;;;;;;;;;;15.80;99.90;;;;;;8406388;28;19924;-70
2023/07/27 04:35:22;;;;;;;;;;;15.80;99.90;;;;;;8380441;28;19935;-71
2023/07/27 04:39:24;;;;;;;;;;;15.80;99.90;;;;;;8366931;28;20374;-71
2023/07/27 04:43:26;;;;;;;;;;;15.80;99.90;;;;;;8365379;28;19958;-71
2023/07/27 04:47:28;;;;;;;;;;;15.70;99.90;;;;;;8377070;28;20257;-71
2023/07/27 04:51:29;;;;;;;;;;;15.70;99.90;;;;;;8375383;28;19929;-71
2023/07/27 04:55:31;;;;;;;;;;;15.70;99.90;;;;;;8390237;28;19925;-71
2023/07/27 04:59:32;;;;;;;;;;;15.70;99.90;;;;;;8391160;28;19928;-70
2023/07/27 05:03:34;;;;;;;;;;;15.70;99.90;;;;;;8396726;28;19982;-70
2023/07/27 05:07:36;;;;;;;;;;;15.80;99.90;;;;;;8363059;28;19925;-71
2023/07/27 05:11:38;;;;;;;;;;;15.80;99.90;;;;;;8383683;28;19925;-71
2023/07/27 05:15:40;;;;;;;;;;;15.80;99.90;;;;;;8371247;28;19924;-71
2023/07/27 05:19:42;;;;;;;;;;;15.80;99.90;;;;;;8383521;28;19924;-71
2023/07/27 05:23:44;;;;;;;;;;;15.80;99.90;;;;;;8354115;28;20360;-71
2023/07/27 05:27:45;;;;;;;;;;;15.80;99.90;;;;;;8364724;28;20044;-71
2023/07/27 05:31:47;;;;;;;;;;;15.80;99.90;;;;;;8377977;28;20386;-71
2023/07/27 05:35:49;;;;;;;;;;;15.80;99.90;;;;;;8379793;28;20035;-71
2023/07/27 05:39:50;;;;;;;;;;;15.80;99.90;;;;;;8386041;28;19932;-71
2023/07/27 05:43:52;;;;;;;;;;;15.80;99.90;;;;;;8387879;28;19935;-71
2023/07/27 05:47:54;;;;;;;;;;;15.80;99.90;;;;;;8409178;28;19928;-71
2023/07/27 05:51:55;;;;;;;;;;;15.90;99.90;;;;;;8364011;28;19924;-70
2023/07/27 05:55:57;;;;;;;;;;;15.90;99.90;;;;;;8356888;28;19979;-71
2023/07/27 05:59:59;;;;;;;;;;;15.90;99.90;;;;;;8386752;28;19925;-70
2023/07/27 06:04:07;;;;;;;;;;;15.90;99.90;;;;;;8363408;28;20256;-71
2023/07/27 06:08:09;;;;;;;;;;;15.90;99.90;;;;;;8377867;28;20016;-71
2023/07/27 06:12:14;;;;;;;;;;;16.00;99.90;;;;;;8385331;28;19935;-71
2023/07/27 06:16:16;;;;;;;;;;;16.00;99.90;;;;;;8388235;28;20370;-71
2023/07/27 06:20:18;;;;;;;;;;;16.10;99.90;;;;;;8374925;28;19925;-71
2023/07/27 06:24:19;;;;;;;;;;;16.10;99.90;;;;;;8372055;28;19931;-71
2023/07/27 06:28:21;;;;;;;;;;;16.10;99.90;;;;;;8387185;28;20368;-70
2023/07/27 06:32:23;;;;;;;;;;;16.20;99.90;;;;;;8402848;28;19982;-70
2023/07/27 06:36:25;;;;;;;;;;;16.20;99.90;;;;;;8367428;28;19951;-70
2023/07/27 06:40:27;;;;;;;;;;;16.20;99.90;;;;;;8369931;28;19924;-70
2023/07/27 06:44:28;;;;;;;;;;;16.20;99.90;;;;;;8376339;28;19925;-70
2023/07/27 06:48:30;;;;;;;;;;;16.20;99.90;;;;;;8379759;28;19928;-71
2023/07/27 06:52:32;;;;;;;;;;;16.30;99.90;;;;;;8378016;28;20007;-71
2023/07/27 06:56:34;;;;;;;;;;;16.30;99.90;;;;;;8386466;28;19936;-70
2023/07/27 07:00:38;;;;;;;;;;;16.30;99.90;;;;;;8394331;28;20303;-70
2023/07/27 07:04:40;;;;;;;;;;;16.40;99.90;;;;;;8382133;28;20327;-70
2023/07/27 07:08:42;;;;;;;;;;;16.50;99.90;;;;;;8367902;28;19924;-70
2023/07/27 07:12:45;;;;;;;;;;;16.50;99.90;;;;;;8369590;28;19928;-70
2023/07/27 07:16:46;;;;;;;;;;;16.50;99.90;;;;;;8382438;28;20256;-70
2023/07/27 07:20:49;;;;;;;;;;;16.60;99.90;;;;;;8368503;28;19925;-70
2023/07/27 07:24:53;;;;;;;;;;;16.60;99.90;;;;;;8350412;28;20026;-70
2023/07/27 07:28:55;;;;;;;;;;;16.70;99.90;;;;;;8368373;28;19925;-70
2023/07/27 07:32:56;;;;;;;;;;;16.80;99.90;;;;;;8396569;28;19928;-70
2023/07/27 07:36:58;;;;;;;;;;;16.80;99.90;;;;;;8390507;28;20425;-70
2023/07/27 07:41:00;;;;;;;;;;;16.90;99.90;;;;;;8392756;28;19924;-70
2023/07/27 07:45:02;;;;;;;;;;;16.90;99.90;;;;;;8396213;28;19978;-71
2023/07/27 07:49:04;;;;;;;;;;;17.00;99.90;;;;;;8396974;28;20291;-70
2023/07/27 08:08:16;;;;;;;;;;;17.30;99.90;;;;;;8356468;28;19959;-71
2023/07/27 08:12:18;;;;;;;;;;;17.20;99.90;;;;;;8337418;28;19925;-71
2023/07/27 08:16:19;;;;;;;;;;;17.30;99.90;;;;;;8347590;28;20438;-71
2023/07/27 08:20:21;;;;;;;;;;;17.30;99.90;;;;;;8330315;28;20303;-71
2023/07/27 08:24:24;;;;;;;;;;;17.30;99.90;;;;;;8336004;28;19925;-72
2023/07/27 08:28:26;;;;;;;;;;;17.40;99.90;;;;;;8333077;28;19960;-72
2023/07/27 08:32:28;;;;;;;;;;;17.40;99.90;;;;;;8331680;28;20254;-71
2023/07/27 08:36:30;;;;;;;;;;;17.40;99.90;;;;;;8330805;28;20338;-72
2023/07/27 08:40:32;;;;;;;;;;;17.40;99.90;;;;;;8339220;28;20004;-71
2023/07/27 08:44:34;;;;;;;;;;;17.40;99.90;;;;;;8333101;28;19928;-71
2023/07/27 08:48:36;;;;;;;;;;;17.40;99.90;;;;;;8337916;28;19925;-72
2023/07/27 08:52:37;;;;;;;;;;;17.50;99.90;;;;;;8334054;28;20428;-72
2023/07/27 08:56:39;;;;;;;;;;;17.50;99.90;;;;;;8331664;28;19936;-72
2023/07/27 09:00:41;;;;;;;;;;;17.50;99.90;;;;;;8333251;28;19936;-72
2023/07/27 09:04:43;;;;;;;;;;;17.50;99.90;;;;;;8327865;28;19925;-71
2023/07/27 09:08:46;;;;;;;;;;;17.50;99.90;;;;;;8333856;28;19978;-72
2023/07/27 09:12:48;;;;;;;;;;;17.60;99.90;;;;;;8350064;28;20385;-72
2023/07/27 09:16:50;;;;;;;;;;;17.60;99.90;;;;;;8328855;28;20397;-71
2023/07/27 09:20:55;;;;;;;;;;;17.50;99.90;;;;;;8356746;28;19929;-71
2023/07/27 09:24:57;;;;;;;;;;;17.60;99.90;;;;;;8336938;28;20298;-71
2023/07/27 09:29:02;;;;;;;;;;;17.60;99.90;;;;;;8331242;28;19925;-71
2023/07/27 09:33:05;;;;;;;;;;;17.70;99.90;;;;;;8331337;28;19933;-72
2023/07/27 09:37:08;;;;;;;;;;;17.70;99.90;;;;;;8341854;28;19929;-72
2023/07/27 09:41:11;;;;;;;;;;;17.70;99.90;;;;;;8332853;28;20368;-71
2023/07/27 09:45:13;;;;;;;;;;;17.70;99.90;;;;;;8343986;28;20541;-72
2023/07/27 09:49:15;;;;;;;;;;;17.80;99.90;;;;;;8332209;28;19925;-72
2023/07/27 09:53:19;;;;;;;;;;;17.90;99.90;;;;;;8330718;28;19925;-71
2023/07/27 09:57:20;;;;;;;;;;;17.90;99.90;;;;;;8345523;28;19948;-71
2023/07/27 10:01:22;;;;;;;;;;;18.00;99.90;;;;;;8335324;28;20315;-72
2023/07/27 10:05:24;;;;;;;;;;;18.00;99.90;;;;;;8326870;28;19925;-71
2023/07/27 10:09:26;;;;;;;;;;;18.10;99.90;;;;;;8342906;28;24203;-72
2023/07/27 10:13:27;;;;;;;;;;;18.10;99.90;;;;;;8327002;28;19929;-71
2023/07/27 10:17:45;;;;;;;;;;;18.20;99.90;;;;;;8326901;28;19956;-72
2023/07/27 10:21:48;;;;;;;;;;;18.20;99.90;;;;;;8331865;28;20376;-72
2023/07/27 10:25:52;;;;;;;;;;;18.20;99.90;;;;;;8333810;28;19929;-72
2023/07/27 10:30:08;;;;;;;;;;;18.20;99.90;;;;;;8348277;28;19986;-72
2023/07/27 10:34:13;;;;;;;;;;;18.30;99.90;;;;;;8338273;28;19925;-71
2023/07/27 10:38:24;;;;;;;;;;;18.30;99.90;;;;;;8332859;28;19971;-72
2023/07/27 10:42:27;;;;;;;;;;;18.20;99.90;;;;;;8317003;28;19989;-72
2023/07/27 10:46:29;;;;;;;;;;;18.30;99.90;;;;;;8328888;28;19982;-72
2023/07/27 10:50:38;;;;;;;;;;;18.30;99.90;;;;;;8331618;28;19925;-72
2023/07/27 10:54:40;;;;;;;;;;;18.30;99.90;;;;;;8331681;28;19971;-71
2023/07/27 10:58:44;;;;;;;;;;;18.40;99.90;;;;;;8331162;28;19924;-72
2023/07/27 11:02:46;;;;;;;;;;;18.40;99.90;;;;;;8326464;28;19979;-72
2023/07/27 11:06:48;;;;;;;;;;;18.40;99.90;;;;;;8349978;28;20322;-72
2023/07/27 11:21:10;;;;;;;;;;;18.50;99.90;;;;;;8341441;28;19920;-72
2023/07/27 11:25:12;;;;;;;;;;;18.60;99.90;;;;;;8352720;28;19932;-71
2023/07/27 11:29:14;;;;;;;;;;;18.70;99.90;;;;;;8337695;28;20284;-72
2023/07/27 11:33:16;;;;;;;;;;;18.60;99.90;;;;;;8333535;28;20372;-72
2023/07/27 11:37:17;;;;;;;;;;;18.60;99.90;;;;;;8320539;28;19925;-71
2023/07/27 11:41:19;;;;;;;;;;;18.70;99.90;;;;;;8332221;28;19932;-72
2023/07/27 11:45:24;;;;;;;;;;;18.70;99.90;;;;;;8328517;28;19928;-72
2023/07/27 11:49:27;;;;;;;;;;;18.70;99.90;;;;;;8337495;28;19925;-71
2023/07/27 11:53:29;;;;;;;;;;;18.70;99.90;;;;;;8329908;28;19982;-70
2023/07/27 11:57:39;;;;;;;;;;;18.70;99.90;;;;;;8329237;28;20339;-71
2023/07/27 12:01:41;;;;;;;;;;;18.70;99.90;;;;;;8317631;28;20436;-72
2023/07/27 12:05:43;;;;;;;;;;;18.70;99.90;;;;;;8336387;28;19925;-72
2023/07/27 12:09:45;;;;;;;;;;;18.70;99.90;;;;;;8335334;28;20396;-72
2023/07/27 12:13:47;;;;;;;;;;;18.70;99.90;;;;;;8332913;28;19947;-72
2023/07/27 12:17:54;;;;;;;;;;;18.80;99.90;;;;;;8331814;28;20308;-72
2023/07/27 12:21:56;;;;;;;;;;;18.90;99.90;;;;;;8335427;28;19936;-72
2023/07/27 12:25:57;;;;;;;;;;;18.90;99.90;;;;;;8334994;28;19929;-72
2023/07/27 12:30:02;;;;;;;;;;;18.90;99.90;;;;;;8353534;28;19926;-72
2023/07/27 12:34:06;;;;;;;;;;;19.00;99.90;;;;;;8343493;28;19925;-71
2023/07/27 12:38:08;;;;;;;;;;;19.00;99.90;;;;;;8351779;28;20088;-71
2023/07/27 12:42:13;;;;;;;;;;;19.00;99.90;;;;;;8349837;28;19979;-72
2023/07/27 12:46:17;;;;;;;;;;;19.00;99.90;;;;;;8334461;28;19943;-72
2023/07/27 12:50:19;;;;;;;;;;;19.00;99.90;;;;;;8335788;28;19925;-71
2023/07/27 12:54:21;;;;;;;;;;;19.10;99.90;;;;;;8353020;28;19925;-72
2023/07/27 12:58:23;;;;;;;;;;;19.10;99.90;;;;;;8334711;28;19971;-72
2023/07/27 13:02:24;;;;;;;;;;;19.10;99.90;;;;;;8342190;28;19929;-72
2023/07/27 13:06:26;;;;;;;;;;;19.10;99.90;;;;;;8331262;28;20331;-72
2023/07/27 13:10:28;;;;;;;;;;;19.10;99.90;;;;;;8329773;28;19978;-71
2023/07/27 13:14:29;;;;;;;;;;;19.10;99.90;;;;;;8334772;28;20424;-72
2023/07/27 13:18:31;;;;;;;;;;;19.10;99.90;;;;;;8334242;28;20284;-71
2023/07/27 13:22:35;;;;;;;;;;;19.00;99.90;;;;;;8351512;28;20336;-72
2023/07/27 13:26:36;;;;;;;;;;;19.00;99.90;;;;;;8333564;28;19925;-72
2023/07/27 13:30:38;;;;;;;;;;;19.00;99.90;;;;;;8331628;28;20399;-73
2023/07/27 13:34:40;;;;;;;;;;;19.00;99.90;;;;;;8336385;28;19987;-72
2023/07/27 13:38:41;;;;;;;;;;;18.90;99.90;;;;;;8343293;28;19936;-72
2023/07/27 13:42:43;;;;;;;;;;;18.90;99.90;;;;;;8349059;28;19979;-71
2023/07/27 13:46:45;;;;;;;;;;;18.80;99.90;;;;;;8341083;28;19932;-72
2023/07/27 13:50:46;;;;;;;;;;;18.80;99.90;;;;;;8335895;28;19929;-72
2023/07/27 13:54:48;;;;;;;;;;;18.80;99.90;;;;;;8327144;28;19925;-72
2023/07/27 13:58:50;;;;;;;;;;;18.80;99.90;;;;;;8344939;28;19933;-72
2023/07/27 14:02:51;;;;;;;;;;;18.90;99.90;;;;;;8353154;28;20372;-72
2023/07/27 14:06:53;;;;;;;;;;;19.00;99.90;;;;;;8335415;28;20019;-72
2023/07/27 14:10:55;;;;;;;;;;;19.00;99.90;;;;;;8332724;28;19936;-72
2023/07/27 14:14:56;;;;;;;;;;;19.00;99.90;;;;;;8331133;28;19932;-72
2023/07/27 14:18:58;;;;;;;;;;;19.00;99.90;;;;;;8345810;28;19924;-71
2023/07/27 14:23:00;;;;;;;;;;;19.00;99.90;;;;;;8344994;28;19924;-72
2023/07/27 14:27:02;;;;;;;;;;;19.00;99.90;;;;;;8346016;28;19925;-72
2023/07/27 14:31:03;;;;;;;;;;;19.00;99.90;;;;;;8350067;28;19924;-72
2023/07/27 14:35:13;;;;;;;;;;;19.00;99.90;;;;;;8333650;28;20375;-72
2023/07/27 14:39:15;;;;;;;;;;;19.00;99.90;;;;;;8334018;28;20272;-72
2023/07/27 14:43:17;;;;;;;;;;;19.00;99.90;;;;;;8332526;28;19978;-72
2023/07/27 14:47:18;;;;;;;;;;;19.00;99.90;;;;;;8335387;28;20040;-73
2023/07/27 14:51:20;;;;;;;;;;;19.00;99.90;;;;;;8328444;28;20574;-72
2023/07/27 14:55:22;;;;;;;;;;;19.00;99.90;;;;;;8332104;28;19925;-72
2023/07/27 14:59:23;;;;;;;;;;;19.00;99.90;;;;;;8330325;28;20277;-72
2023/07/27 15:03:27;;;;;;;;;;;19.00;99.90;;;;;;8339210;28;20028;-71
2023/07/27 15:07:29;;;;;;;;;;;19.00;99.90;;;;;;8332134;28;19972;-72
2023/07/27 15:11:30;;;;;;;;;;;18.90;99.90;;;;;;8332178;28;19933;-72
2023/07/27 15:15:36;;;;;;;;;;;18.90;99.90;;;;;;8334115;28;19937;-72
2023/07/27 15:19:37;;;;;;;;;;;18.90;99.90;;;;;;8335901;28;19979;-72
2023/07/27 15:23:39;;;;;;;;;;;18.90;99.90;;;;;;8346567;28;20281;-72
2023/07/27 15:27:41;;;;;;;;;;;18.90;99.90;;;;;;8331017;28;19933;-72
2023/07/27 15:31:42;;;;;;;;;;;18.90;99.90;;;;;;8332930;28;19931;-72
2023/07/27 15:35:45;;;;;;;;;;;18.90;99.90;;;;;;8332110;28;20372;-72
2023/07/27 15:39:46;;;;;;;;;;;18.90;99.90;;;;;;8332440;28;19932;-72
2023/07/27 15:43:48;;;;;;;;;;;18.80;99.90;;;;;;8327299;28;19925;-71
2023/07/27 15:47:49;;;;;;;;;;;18.80;99.90;;;;;;8334646;28;19928;-72
2023/07/27 15:51:51;;;;;;;;;;;18.80;99.90;;;;;;8343799;28;19933;-72
2023/07/27 15:55:53;;;;;;;;;;;18.80;99.90;;;;;;8338607;28;19940;-72
2023/07/27 16:00:00;;;;;;;;;;;18.80;99.90;;;;;;8336538;28;19925;-72
2023/07/27 16:04:02;;;;;;;;;;;18.80;99.90;;;;;;8338803;28;20325;-72
2023/07/27 16:08:04;;;;;;;;;;;18.80;99.90;;;;;;8334238;28;19929;-72
2023/07/27 16:12:06;;;;;;;;;;;18.80;99.90;;;;;;8334489;28;20384;-72
2023/07/27 16:16:08;;;;;;;;;;;18.80;99.90;;;;;;8338033;28;19955;-72
2023/07/27 16:20:10;;;;;;;;;;;18.80;99.90;;;;;;8331359;28;19932;-72
2023/07/27 16:24:11;;;;;;;;;;;18.80;99.90;;;;;;8312804;28;19929;-72
2023/07/27 16:28:13;;;;;;;;;;;18.80;99.90;;;;;;8337206;28;19987;-72
2023/07/27 16:32:15;;;;;;;;;;;18.70;99.90;;;;;;8340142;28;19925;-72
2023/07/27 16:36:16;;;;;;;;;;;18.70;99.90;;;;;;8340893;28;19975;-72
2023/07/27 16:40:18;;;;;;;;;;;18.80;99.90;;;;;;8326573;28;19999;-72
2023/07/27 16:44:20;;;;;;;;;;;18.70;99.90;;;;;;8349819;28;19935;-72
2023/07/27 16:48:21;;;;;;;;;;;18.70;99.90;;;;;;8332961;28;19929;-72
2023/07/27 16:52:23;;;;;;;;;;;18.70;99.90;;;;;;8332807;28;19925;-72
2023/07/27 16:56:25;;;;;;;;;;;18.70;99.90;;;;;;8334073;28;19925;-72
2023/07/27 17:00:26;;;;;;;;;;;18.60;99.90;;;;;;8352880;28;19952;-72
2023/07/27 17:04:28;;;;;;;;;;;18.60;99.90;;;;;;8350818;28;19929;-72
2023/07/27 17:08:30;;;;;;;;;;;18.50;99.90;;;;;;8326116;28;20433;-72
2023/07/27 17:12:31;;;;;;;;;;;18.50;99.90;;;;;;8356444;28;20292;-72
2023/07/27 17:16:33;;;;;;;;;;;18.50;99.90;;;;;;8333566;28;20403;-72
2023/07/27 17:20:35;;;;;;;;;;;18.50;99.90;;;;;;8330916;28;19929;-72
2023/07/27 17:24:37;;;;;;;;;;;18.50;99.90;;;;;;8338150;28;20263;-72
2023/07/27 17:28:38;;;;;;;;;;;18.50;99.90;;;;;;8333392;28;19925;-72
2023/07/27 17:32:41;;;;;;;;;;;18.50;99.90;;;;;;8336509;28;19924;-72
2023/07/27 17:36:42;;;;;;;;;;;18.50;99.90;;;;;;8339281;28;20329;-72
2023/07/27 17:40:44;;;;;;;;;;;18.60;99.90;;;;;;8354185;28;19925;-72
2023/07/27 17:44:46;;;;;;;;;;;18.50;99.90;;;;;;8335846;28;19926;-72
2023/07/27 17:48:47;;;;;;;;;;;18.50;99.90;;;;;;8335129;28;19932;-72
2023/07/27 17:52:49;;;;;;;;;;;18.50;99.90;;;;;;8341784;28;19932;-72
2023/07/27 17:56:51;;;;;;;;;;;18.50;99.90;;;;;;8335138;28;19925;-72
2023/07/27 18:00:52;;;;;;;;;;;18.50;99.90;;;;;;8333476;28;19947;-72
2023/07/27 18:04:54;;;;;;;;;;;18.40;99.90;;;;;;8336222;28;19933;-72
2023/07/27 18:08:56;;;;;;;;;;;18.50;99.90;;;;;;8343406;28;20400;-72
2023/07/27 18:13:00;;;;;;;;;;;18.40;99.90;;;;;;8335893;28;19925;-72
2023/07/27 18:17:02;;;;;;;;;;;18.40;99.90;;;;;;8330154;28;19974;-72
2023/07/27 18:21:07;;;;;;;;;;;18.40;99.90;;;;;;8350190;28;19932;-72
2023/07/27 18:25:09;;;;;;;;;;;18.40;99.90;;;;;;8346652;28;19925;-72
2023/07/27 18:29:11;;;;;;;;;;;18.40;99.90;;;;;;8335210;28;19936;-72
2023/07/27 18:33:12;;;;;;;;;;;18.50;99.90;;;;;;8330978;28;19928;-72
2023/07/27 18:37:14;;;;;;;;;;;18.50;99.90;;;;;;8333282;28;23246;-72
2023/07/27 18:41:16;;;;;;;;;;;18.40;99.90;;;;;;8333454;28;19986;-72
2023/07/27 18:45:18;;;;;;;;;;;18.50;99.90;;;;;;8339539;28;19929;-72
2023/07/27 18:49:20;;;;;;;;;;;18.50;99.90;;;;;;8334256;28;19925;-72
2023/07/27 18:53:21;;;;;;;;;;;18.50;99.90;;;;;;8336019;28;19928;-72
2023/07/27 18:57:23;;;;;;;;;;;18.50;99.90;;;;;;8338563;28;19925;-72
2023/07/27 19:01:25;;;;;;;;;;;18.50;99.90;;;;;;8332070;28;19979;-72
2023/07/27 19:15:34;;;;;;;;;;;18.60;99.90;;;;;;8332710;28;20413;-72
2023/07/27 19:19:36;;;;;;;;;;;18.60;99.90;;;;;;8326154;28;19964;-72
2023/07/27 19:23:37;;;;;;;;;;;18.60;99.90;;;;;;8335012;28;19929;-72
2023/07/27 19:27:42;;;;;;;;;;;18.60;99.90;;;;;;8329994;28;19929;-72
2023/07/27 19:31:44;;;;;;;;;;;18.60;99.90;;;;;;8351364;28;19925;-72
2023/07/27 19:35:45;;;;;;;;;;;18.60;99.90;;;;;;8344838;28;19925;-72
2023/07/27 19:39:47;;;;;;;;;;;18.60;99.90;;;;;;8350421;28;19933;-72
2023/07/27 19:43:49;;;;;;;;;;;18.60;99.90;;;;;;8349668;28;19925;-72
2023/07/27 19:47:51;;;;;;;;;;;18.60;99.90;;;;;;8347422;28;20368;-72
2023/07/27 19:51:53;;;;;;;;;;;18.60;99.90;;;;;;8337312;28;19932;-72
2023/07/27 19:56:01;;;;;;;;;;;18.60;99.90;;;;;;8356023;28;20182;-72
2023/07/27 20:00:03;;;;;;;;;;;18.60;99.90;;;;;;8349332;28;19925;-72
2023/07/27 20:04:05;;;;;;;;;;;18.60;99.90;;;;;;8335486;28;19925;-72
2023/07/27 20:08:07;;;;;;;;;;;18.60;99.90;;;;;;8336175;28;19928;-72
2023/07/27 20:12:08;;;;;;;;;;;18.60;99.90;;;;;;8339049;28;19928;-72
2023/07/27 20:16:10;;;;;;;;;;;18.60;99.90;;;;;;8352973;28;19925;-71
2023/07/27 20:20:12;;;;;;;;;;;18.60;99.90;;;;;;8329202;28;19948;-72
2023/07/27 20:24:15;;;;;;;;;;;18.60;99.90;;;;;;8336822;28;19929;-72
2023/07/27 20:28:17;;;;;;;;;;;18.60;99.90;;;;;;8336947;28;19932;-72
2023/07/27 20:32:19;;;;;;;;;;;18.60;99.90;;;;;;8315186;28;19948;-72
2023/07/27 20:36:20;;;;;;;;;;;18.60;99.90;;;;;;8339009;28;20015;-72
2023/07/27 20:40:22;;;;;;;;;;;18.60;99.90;;;;;;8350349;28;19933;-72
2023/07/27 20:44:24;;;;;;;;;;;18.60;99.90;;;;;;8349754;28;19932;-72
2023/07/27 20:48:25;;;;;;;;;;;18.60;99.90;;;;;;8330526;28;20003;-72
2023/07/27 20:52:27;;;;;;;;;;;18.60;99.90;;;;;;8350619;28;19940;-72
2023/07/27 20:56:29;;;;;;;;;;;18.60;99.90;;;;;;8339241;28;20431;-72
2023/07/27 21:00:30;;;;;;;;;;;18.60;99.90;;;;;;8349174;28;19987;-71
2023/07/27 21:04:32;;;;;;;;;;;18.60;99.90;;;;;;8367255;28;19925;-72
2023/07/27 21:08:35;;;;;;;;;;;18.60;99.90;;;;;;8386663;28;20387;-72
2023/07/27 21:12:36;;;;;;;;;;;18.60;99.90;;;;;;8396101;28;19970;-72
2023/07/27 21:16:38;;;;;;;;;;;18.60;99.90;;;;;;8371068;28;19929;-71
2023/07/27 21:20:40;;;;;;;;;;;18.60;99.90;;;;;;8364309;28;19925;-72
2023/07/27 21:24:41;;;;;;;;;;;18.60;99.90;;;;;;8357767;28;19931;-71
2023/07/27 21:28:43;;;;;;;;;;;18.60;99.90;;;;;;8345548;28;20333;-72
2023/07/27 21:32:45;;;;;;;;;;;18.60;99.90;;;;;;8383308;28;19925;-72
2023/07/27 21:36:49;;;;;;;;;;;18.60;99.90;;;;;;8390550;28;20269;-72
2023/07/27 21:40:51;;;;;;;;;;;18.60;99.90;;;;;;8388103;28;19955;-72
2023/07/27 21:44:53;;;;;;;;;;;18.60;99.90;;;;;;8393712;28;20379;-72
2023/07/27 21:48:54;;;;;;;;;;;18.50;99.90;;;;;;8365615;28;19925;-72
2023/07/27 21:52:56;;;;;;;;;;;18.50;99.90;;;;;;8365446;28;20315;-72
2023/07/27 21:56:57;;;;;;;;;;;18.50;99.90;;;;;;8380141;28;20374;-72
2023/07/27 22:00:59;;;;;;;;;;;18.50;99.90;;;;;;8392773;28;19979;-72
2023/07/27 22:05:01;;;;;;;;;;;18.50;99.90;;;;;;8399754;28;19968;-72
2023/07/27 22:09:03;;;;;;;;;;;18.50;99.90;;;;;;8386141;28;19930;-72
2023/07/27 22:13:05;;;;;;;;;;;18.50;99.90;;;;;;8388451;28;20023;-72
2023/07/27 22:17:07;;;;;;;;;;;18.50;99.90;;;;;;8377990;28;19928;-72
2023/07/27 22:21:09;;;;;;;;;;;18.50;99.90;;;;;;8389546;28;19931;-72
2023/07/27 22:25:11;;;;;;;;;;;18.50;99.90;;;;;;8361055;28;19929;-72
2023/07/27 22:29:13;;;;;;;;;;;18.50;99.90;;;;;;8373971;28;19972;-72
2023/07/27 22:33:15;;;;;;;;;;;18.50;99.90;;;;;;8385703;28;19932;-72
2023/07/27 22:37:16;;;;;;;;;;;18.40;99.90;;;;;;8364764;28;20368;-72
2023/07/27 22:41:18;;;;;;;;;;;18.50;99.90;;;;;;8391407;28;19976;-72
2023/07/27 22:45:20;;;;;;;;;;;18.50;99.90;;;;;;8377535;28;20261;-72
2023/07/27 22:49:21;;;;;;;;;;;18.40;99.90;;;;;;8374070;28;20348;-72
2023/07/27 22:53:23;;;;;;;;;;;18.50;99.90;;;;;;8386143;28;19932;-72
2023/07/27 22:57:25;;;;;;;;;;;18.40;99.90;;;;;;8382806;28;19925;-72
2023/07/27 23:01:27;;;;;;;;;;;18.40;99.90;;;;;;8400012;28;19924;-72
2023/07/27 23:05:28;;;;;;;;;;;18.50;99.90;;;;;;8395740;28;19929;-72
2023/07/27 23:09:30;;;;;;;;;;;18.50;99.90;;;;;;8400329;28;19979;-72
2023/07/27 23:13:32;;;;;;;;;;;18.50;99.90;;;;;;8398297;28;19924;-72
2023/07/27 23:17:34;;;;;;;;;;;18.50;99.90;;;;;;8413142;28;19929;-72
2023/07/27 23:21:35;;;;;;;;;;;18.40;99.90;;;;;;8396332;28;20363;-72
2023/07/27 23:25:37;;;;;;;;;;;18.50;99.90;;;;;;8350436;28;19979;-72
2023/07/27 23:29:39;;;;;;;;;;;18.50;99.90;;;;;;8382762;28;19924;-72
2023/07/27 23:33:40;;;;;;;;;;;18.50;99.90;;;;;;8369176;28;19928;-72
2023/07/27 23:37:42;;;;;;;;;;;18.50;99.90;;;;;;8369441;28;19930;-72
2023/07/27 23:41:44;;;;;;;;;;;18.50;99.90;;;;;;8394606;28;19924;-72
2023/07/27 23:45:47;;;;;;;;;;;18.50;99.90;;;;;;8366373;28;20292;-72
2023/07/27 23:49:48;;;;;;;;;;;18.50;99.90;;;;;;8374950;28;19986;-72
2023/07/27 23:53:50;;;;;;;;;;;18.50;99.90;;;;;;8389653;28;19924;-72
2023/07/27 23:57:52;;;;;;;;;;;18.50;99.90;;;;;;8394298;28;19931;-72
